SKL5 NZNR-NZWN
Flight info
| Callsign | SKL5 |
|---|---|
| Flight time | 0h 48m |
| Altitude | 16000 |
| Route | NIXOT H103 RIDLA H201 PM V242 DOGAD |
| Aircraft | BE20/L-SBGRY/S |
Departure
| Time | 2026-04-25 04:45 |
|---|---|
| Airport | Hawke's Bay Airport (NZNR) |
Arrival
| Time | 2026-04-25 05:33 |
|---|---|
| Airport | Wellington International Airport (NZWN) |
| Time | Latitude | Longitude | Altitude | Speed | Heading |
|---|---|---|---|---|---|
| 2026-04-25 04:22 | -39.46574 | 176.87225 | 40 ft | 0 kts | 17° |
| 2026-04-25 04:22 | -39.46573 | 176.87225 | 40 ft | 0 kts | 17° |
| 2026-04-25 04:41 | -39.46569 | 176.87224 | 37 ft | 2 kts | 324° |
| 2026-04-25 04:41 | -39.46583 | 176.87155 | 37 ft | 15 kts | 229° |
| 2026-04-25 04:41 | -39.46656 | 176.87090 | 37 ft | 14 kts | 221° |
| 2026-04-25 04:41 | -39.46672 | 176.86972 | 37 ft | 18 kts | 279° |
| 2026-04-25 04:42 | -39.46659 | 176.86792 | 37 ft | 12 kts | 264° |
| 2026-04-25 04:42 | -39.46743 | 176.86742 | 37 ft | 20 kts | 184° |
| 2026-04-25 04:42 | -39.46953 | 176.86719 | 38 ft | 43 kts | 186° |
| 2026-04-25 04:42 | -39.47302 | 176.86682 | 35 ft | 55 kts | 185° |
| 2026-04-25 04:43 | -39.47647 | 176.86633 | 35 ft | 34 kts | 194° |
| 2026-04-25 04:43 | -39.47736 | 176.86628 | 36 ft | 2 kts | 60° |
| 2026-04-25 04:43 | -39.47708 | 176.86636 | 36 ft | 4 kts | 4° |
| 2026-04-25 04:43 | -39.47707 | 176.86636 | 35 ft | 0 kts | 4° |
| 2026-04-25 04:44 | -39.47690 | 176.86638 | 35 ft | 11 kts | 3° |
| 2026-04-25 04:44 | -39.47387 | 176.86671 | 35 ft | 79 kts | 5° |
| 2026-04-25 04:44 | -39.46649 | 176.86749 | 122 ft | 126 kts | 5° |
| 2026-04-25 04:45 | -39.45694 | 176.86839 | 446 ft | 150 kts | 5° |
| 2026-04-25 04:45 | -39.44598 | 176.86981 | 840 ft | 162 kts | 7° |
| 2026-04-25 04:45 | -39.43511 | 176.87397 | 1334 ft | 166 kts | 31° |
| 2026-04-25 04:45 | -39.42675 | 176.88397 | 1842 ft | 168 kts | 56° |
| 2026-04-25 04:46 | -39.42252 | 176.89828 | 2361 ft | 171 kts | 82° |
| 2026-04-25 04:46 | -39.42378 | 176.91370 | 2834 ft | 179 kts | 109° |
| 2026-04-25 04:46 | -39.43069 | 176.92703 | 3309 ft | 185 kts | 136° |
| 2026-04-25 04:46 | -39.44034 | 176.93827 | 3809 ft | 188 kts | 139° |
| 2026-04-25 04:47 | -39.45014 | 176.94968 | 4314 ft | 190 kts | 140° |
| 2026-04-25 04:47 | -39.46016 | 176.96137 | 4833 ft | 192 kts | 140° |
| 2026-04-25 04:47 | -39.47013 | 176.97297 | 5336 ft | 192 kts | 142° |
| 2026-04-25 04:47 | -39.48201 | 176.97994 | 5838 ft | 188 kts | 173° |
| 2026-04-25 04:48 | -39.49479 | 176.97854 | 6342 ft | 185 kts | 205° |
| 2026-04-25 04:48 | -39.50490 | 176.96851 | 6852 ft | 185 kts | 227° |
| 2026-04-25 04:48 | -39.51315 | 176.95595 | 7343 ft | 187 kts | 229° |
| 2026-04-25 04:48 | -39.52162 | 176.94310 | 7826 ft | 189 kts | 228° |
| 2026-04-25 04:49 | -39.53026 | 176.93018 | 8329 ft | 191 kts | 227° |
| 2026-04-25 04:49 | -39.53898 | 176.91715 | 8838 ft | 192 kts | 227° |
| 2026-04-25 04:49 | -39.54779 | 176.90400 | 9352 ft | 194 kts | 227° |
| 2026-04-25 04:49 | -39.55664 | 176.89077 | 9872 ft | 195 kts | 227° |
| 2026-04-25 04:50 | -39.56554 | 176.87745 | 10371 ft | 196 kts | 227° |
| 2026-04-25 04:50 | -39.57449 | 176.86406 | 10847 ft | 197 kts | 227° |
| 2026-04-25 04:50 | -39.58349 | 176.85059 | 11330 ft | 198 kts | 227° |
| 2026-04-25 04:50 | -39.59254 | 176.83703 | 11821 ft | 200 kts | 227° |
| 2026-04-25 04:51 | -39.60165 | 176.82338 | 12319 ft | 201 kts | 227° |
| 2026-04-25 04:51 | -39.61081 | 176.80965 | 12824 ft | 202 kts | 227° |
| 2026-04-25 04:51 | -39.62001 | 176.79584 | 13338 ft | 203 kts | 226° |
| 2026-04-25 04:51 | -39.62926 | 176.78198 | 13857 ft | 203 kts | 227° |
| 2026-04-25 04:52 | -39.63850 | 176.76810 | 14352 ft | 204 kts | 226° |
| 2026-04-25 04:52 | -39.64777 | 176.75418 | 14819 ft | 204 kts | 227° |
| 2026-04-25 04:52 | -39.65702 | 176.74027 | 15295 ft | 204 kts | 226° |
| 2026-04-25 04:52 | -39.66628 | 176.72638 | 15778 ft | 204 kts | 226° |
| 2026-04-25 04:53 | -39.67582 | 176.71207 | 15986 ft | 218 kts | 226° |
| 2026-04-25 04:53 | -39.68609 | 176.69661 | 16019 ft | 233 kts | 227° |
| 2026-04-25 04:53 | -39.69695 | 176.68022 | 16022 ft | 244 kts | 227° |
| 2026-04-25 04:53 | -39.70821 | 176.66323 | 16018 ft | 251 kts | 227° |
| 2026-04-25 04:54 | -39.71971 | 176.64590 | 16020 ft | 255 kts | 227° |
| 2026-04-25 04:54 | -39.73126 | 176.62847 | 16142 ft | 254 kts | 227° |
| 2026-04-25 04:54 | -39.74275 | 176.61112 | 16252 ft | 253 kts | 227° |
| 2026-04-25 04:54 | -39.75432 | 176.59368 | 16257 ft | 256 kts | 227° |
| 2026-04-25 04:55 | -39.76598 | 176.57607 | 16261 ft | 258 kts | 227° |
| 2026-04-25 04:55 | -39.77773 | 176.55831 | 16264 ft | 259 kts | 227° |
| 2026-04-25 04:55 | -39.78950 | 176.54052 | 16267 ft | 260 kts | 227° |
| 2026-04-25 04:55 | -39.80129 | 176.52269 | 16268 ft | 260 kts | 227° |
| 2026-04-25 04:56 | -39.81312 | 176.50477 | 16269 ft | 261 kts | 227° |
| 2026-04-25 04:56 | -39.82493 | 176.48688 | 16268 ft | 261 kts | 227° |
| 2026-04-25 04:56 | -39.83676 | 176.46895 | 16268 ft | 261 kts | 227° |
| 2026-04-25 04:56 | -39.84877 | 176.45130 | 16267 ft | 259 kts | 221° |
| 2026-04-25 04:57 | -39.86256 | 176.43641 | 16267 ft | 258 kts | 217° |
| 2026-04-25 04:57 | -39.87651 | 176.42171 | 16268 ft | 259 kts | 217° |
| 2026-04-25 04:57 | -39.89044 | 176.40685 | 16266 ft | 259 kts | 218° |
| 2026-04-25 04:57 | -39.90388 | 176.39126 | 16265 ft | 260 kts | 227° |
| 2026-04-25 04:58 | -39.91437 | 176.37238 | 16266 ft | 261 kts | 234° |
| 2026-04-25 04:58 | -39.92410 | 176.35235 | 16267 ft | 262 kts | 235° |
| 2026-04-25 04:58 | -39.93439 | 176.33284 | 16265 ft | 261 kts | 231° |
| 2026-04-25 04:58 | -39.94531 | 176.31389 | 16266 ft | 261 kts | 231° |
| 2026-04-25 04:59 | -39.95618 | 176.29490 | 16265 ft | 262 kts | 231° |
| 2026-04-25 04:59 | -39.96688 | 176.27570 | 16266 ft | 262 kts | 232° |
| 2026-04-25 04:59 | -39.97759 | 176.25643 | 16263 ft | 262 kts | 232° |
| 2026-04-25 04:59 | -39.98833 | 176.23724 | 16263 ft | 262 kts | 231° |
| 2026-04-25 05:00 | -39.99909 | 176.21802 | 16263 ft | 262 kts | 231° |
| 2026-04-25 05:00 | -40.00983 | 176.19880 | 16266 ft | 262 kts | 232° |
| 2026-04-25 05:00 | -40.02057 | 176.17955 | 16256 ft | 262 kts | 232° |
| 2026-04-25 05:00 | -40.03132 | 176.16028 | 16256 ft | 263 kts | 232° |
| 2026-04-25 05:01 | -40.04207 | 176.14099 | 16255 ft | 263 kts | 232° |
| 2026-04-25 05:01 | -40.05284 | 176.12167 | 16255 ft | 263 kts | 232° |
| 2026-04-25 05:01 | -40.06361 | 176.10231 | 16255 ft | 263 kts | 232° |
| 2026-04-25 05:01 | -40.07436 | 176.08299 | 16254 ft | 263 kts | 232° |
| 2026-04-25 05:02 | -40.08511 | 176.06370 | 16258 ft | 263 kts | 232° |
| 2026-04-25 05:02 | -40.09585 | 176.04435 | 16257 ft | 263 kts | 232° |
| 2026-04-25 05:02 | -40.10661 | 176.02499 | 16262 ft | 263 kts | 232° |
| 2026-04-25 05:02 | -40.11737 | 176.00561 | 16262 ft | 264 kts | 232° |
| 2026-04-25 05:03 | -40.12813 | 175.98620 | 16259 ft | 264 kts | 232° |
| 2026-04-25 05:03 | -40.13888 | 175.96682 | 16258 ft | 263 kts | 232° |
| 2026-04-25 05:03 | -40.14962 | 175.94744 | 16257 ft | 263 kts | 232° |
| 2026-04-25 05:03 | -40.16033 | 175.92810 | 16255 ft | 262 kts | 232° |
| 2026-04-25 05:04 | -40.17100 | 175.90880 | 16259 ft | 262 kts | 232° |
| 2026-04-25 05:04 | -40.18169 | 175.88949 | 16259 ft | 262 kts | 232° |
| 2026-04-25 05:04 | -40.19237 | 175.87017 | 16262 ft | 262 kts | 232° |
| 2026-04-25 05:04 | -40.20304 | 175.85086 | 16265 ft | 262 kts | 232° |
| 2026-04-25 05:05 | -40.21372 | 175.83150 | 16261 ft | 263 kts | 232° |
| 2026-04-25 05:05 | -40.22442 | 175.81212 | 16257 ft | 263 kts | 232° |
| 2026-04-25 05:05 | -40.23510 | 175.79275 | 16256 ft | 263 kts | 232° |
| 2026-04-25 05:05 | -40.24581 | 175.77331 | 16254 ft | 263 kts | 232° |
| 2026-04-25 05:06 | -40.25652 | 175.75386 | 16257 ft | 263 kts | 232° |
| 2026-04-25 05:06 | -40.26723 | 175.73441 | 16257 ft | 263 kts | 232° |
| 2026-04-25 05:06 | -40.27792 | 175.71496 | 16259 ft | 263 kts | 232° |
| 2026-04-25 05:06 | -40.28861 | 175.69551 | 16259 ft | 263 kts | 232° |
| 2026-04-25 05:07 | -40.29932 | 175.67603 | 16260 ft | 263 kts | 232° |
| 2026-04-25 05:07 | -40.31001 | 175.65655 | 16259 ft | 263 kts | 232° |
| 2026-04-25 05:07 | -40.32200 | 175.63879 | 16257 ft | 259 kts | 214° |
| 2026-04-25 05:07 | -40.33775 | 175.62780 | 16263 ft | 257 kts | 202° |
| 2026-04-25 05:08 | -40.35421 | 175.61866 | 16264 ft | 257 kts | 201° |
| 2026-04-25 05:08 | -40.37074 | 175.60953 | 16266 ft | 258 kts | 202° |
| 2026-04-25 05:08 | -40.38723 | 175.60024 | 16267 ft | 258 kts | 202° |
| 2026-04-25 05:08 | -40.40372 | 175.59091 | 16266 ft | 258 kts | 202° |
| 2026-04-25 05:09 | -40.42021 | 175.58161 | 16267 ft | 258 kts | 202° |
| 2026-04-25 05:09 | -40.43677 | 175.57229 | 16271 ft | 258 kts | 202° |
| 2026-04-25 05:09 | -40.45329 | 175.56298 | 16270 ft | 259 kts | 202° |
| 2026-04-25 05:09 | -40.46982 | 175.55365 | 16270 ft | 259 kts | 202° |
| 2026-04-25 05:10 | -40.48634 | 175.54432 | 16269 ft | 258 kts | 202° |
| 2026-04-25 05:10 | -40.50287 | 175.53498 | 16268 ft | 259 kts | 202° |
| 2026-04-25 05:10 | -40.51939 | 175.52564 | 16269 ft | 259 kts | 202° |
| 2026-04-25 05:10 | -40.53590 | 175.51631 | 16270 ft | 259 kts | 202° |
| 2026-04-25 05:11 | -40.55244 | 175.50695 | 16271 ft | 257 kts | 202° |
| 2026-04-25 05:11 | -40.56836 | 175.49789 | 16258 ft | 245 kts | 202° |
| 2026-04-25 05:11 | -40.58390 | 175.48908 | 16255 ft | 241 kts | 202° |
| 2026-04-25 05:12 | -40.61478 | 175.47164 | 16252 ft | 242 kts | 202° |
| 2026-04-25 05:12 | -40.63022 | 175.46287 | 16257 ft | 242 kts | 202° |
| 2026-04-25 05:12 | -40.64570 | 175.45410 | 16253 ft | 242 kts | 202° |
| 2026-04-25 05:12 | -40.66109 | 175.44536 | 16252 ft | 242 kts | 202° |
| 2026-04-25 05:13 | -40.67659 | 175.43656 | 16251 ft | 242 kts | 202° |
| 2026-04-25 05:13 | -40.69210 | 175.42775 | 16252 ft | 243 kts | 202° |
| 2026-04-25 05:13 | -40.70762 | 175.41893 | 16256 ft | 243 kts | 202° |
| 2026-04-25 05:13 | -40.72315 | 175.41010 | 16256 ft | 243 kts | 202° |
| 2026-04-25 05:14 | -40.73869 | 175.40126 | 16257 ft | 243 kts | 202° |
| 2026-04-25 05:14 | -40.75419 | 175.39244 | 16256 ft | 243 kts | 202° |
| 2026-04-25 05:14 | -40.76969 | 175.38361 | 16256 ft | 243 kts | 202° |
| 2026-04-25 05:15 | -40.80065 | 175.36597 | 16257 ft | 242 kts | 202° |
| 2026-04-25 05:15 | -40.81612 | 175.35716 | 16261 ft | 242 kts | 202° |
| 2026-04-25 05:15 | -40.83162 | 175.34831 | 16261 ft | 243 kts | 202° |
| 2026-04-25 05:15 | -40.84714 | 175.33947 | 16260 ft | 243 kts | 202° |
| 2026-04-25 05:16 | -40.86267 | 175.33059 | 16263 ft | 243 kts | 202° |
| 2026-04-25 05:16 | -40.87816 | 175.32174 | 16261 ft | 243 kts | 202° |
| 2026-04-25 05:16 | -40.89370 | 175.31286 | 16262 ft | 244 kts | 202° |
| 2026-04-25 05:16 | -40.90927 | 175.30397 | 16259 ft | 244 kts | 202° |
| 2026-04-25 05:17 | -40.92489 | 175.29503 | 16260 ft | 244 kts | 202° |
| 2026-04-25 05:17 | -40.94048 | 175.28614 | 16262 ft | 244 kts | 202° |
| 2026-04-25 05:17 | -40.95612 | 175.27715 | 16262 ft | 245 kts | 202° |
| 2026-04-25 05:17 | -40.97181 | 175.26815 | 16271 ft | 246 kts | 202° |
| 2026-04-25 05:18 | -40.98754 | 175.25911 | 16266 ft | 246 kts | 202° |
| 2026-04-25 05:18 | -41.00323 | 175.25006 | 16269 ft | 247 kts | 202° |
| 2026-04-25 05:18 | -41.01915 | 175.24091 | 16272 ft | 252 kts | 202° |
| 2026-04-25 05:18 | -41.03541 | 175.23153 | 16133 ft | 260 kts | 203° |
| 2026-04-25 05:19 | -41.05237 | 175.22173 | 15763 ft | 271 kts | 204° |
| 2026-04-25 05:19 | -41.06905 | 175.20954 | 15353 ft | 278 kts | 211° |
| 2026-04-25 05:19 | -41.08561 | 175.19628 | 14922 ft | 277 kts | 211° |
| 2026-04-25 05:19 | -41.09655 | 175.18760 | 14642 ft | 277 kts | 210° |
| 2026-04-25 05:20 | -41.11280 | 175.17478 | 14207 ft | 266 kts | 210° |
| 2026-04-25 05:20 | -41.12861 | 175.16228 | 13566 ft | 259 kts | 211° |
| 2026-04-25 05:20 | -41.14370 | 175.15032 | 13154 ft | 248 kts | 210° |
| 2026-04-25 05:20 | -41.15842 | 175.13866 | 12776 ft | 245 kts | 210° |
| 2026-04-25 05:21 | -41.17301 | 175.12710 | 12405 ft | 243 kts | 210° |
| 2026-04-25 05:21 | -41.18746 | 175.11565 | 12045 ft | 241 kts | 210° |
| 2026-04-25 05:21 | -41.20179 | 175.10425 | 11685 ft | 240 kts | 210° |
| 2026-04-25 05:21 | -41.21608 | 175.09292 | 11320 ft | 239 kts | 210° |
| 2026-04-25 05:22 | -41.23021 | 175.08166 | 11057 ft | 233 kts | 210° |
| 2026-04-25 05:22 | -41.24409 | 175.07066 | 11015 ft | 232 kts | 210° |
| 2026-04-25 05:22 | -41.25784 | 175.05973 | 11009 ft | 229 kts | 210° |
| 2026-04-25 05:22 | -41.27160 | 175.04878 | 10862 ft | 233 kts | 210° |
| 2026-04-25 05:23 | -41.28564 | 175.03760 | 10595 ft | 235 kts | 210° |
| 2026-04-25 05:23 | -41.29966 | 175.02643 | 10244 ft | 235 kts | 210° |
| 2026-04-25 05:23 | -41.31340 | 175.01485 | 9859 ft | 233 kts | 214° |
| 2026-04-25 05:23 | -41.32677 | 175.00283 | 9471 ft | 232 kts | 212° |
| 2026-04-25 05:24 | -41.34026 | 174.99113 | 9086 ft | 230 kts | 212° |
| 2026-04-25 05:24 | -41.35356 | 174.97942 | 8705 ft | 229 kts | 213° |
| 2026-04-25 05:24 | -41.36680 | 174.96765 | 8339 ft | 229 kts | 213° |
| 2026-04-25 05:24 | -41.38007 | 174.95579 | 7968 ft | 230 kts | 213° |
| 2026-04-25 05:25 | -41.39338 | 174.94395 | 7593 ft | 229 kts | 213° |
| 2026-04-25 05:25 | -41.40669 | 174.93220 | 7222 ft | 229 kts | 212° |
| 2026-04-25 05:25 | -41.41994 | 174.92045 | 6865 ft | 228 kts | 213° |
| 2026-04-25 05:25 | -41.43420 | 174.91204 | 6495 ft | 221 kts | 192° |
| 2026-04-25 05:26 | -41.44908 | 174.91026 | 6079 ft | 211 kts | 185° |
| 2026-04-25 05:26 | -41.46349 | 174.90914 | 5625 ft | 207 kts | 185° |
| 2026-04-25 05:26 | -41.47781 | 174.90797 | 5169 ft | 202 kts | 187° |
| 2026-04-25 05:26 | -41.49047 | 174.90116 | 4697 ft | 196 kts | 218° |
| 2026-04-25 05:27 | -41.49883 | 174.88739 | 4295 ft | 189 kts | 246° |
| 2026-04-25 05:27 | -41.50141 | 174.87078 | 3991 ft | 180 kts | 271° |
| 2026-04-25 05:27 | -41.50077 | 174.85443 | 3690 ft | 175 kts | 273° |
| 2026-04-25 05:27 | -41.50013 | 174.83826 | 3378 ft | 174 kts | 274° |
| 2026-04-25 05:28 | -41.49912 | 174.82245 | 3104 ft | 167 kts | 285° |
| 2026-04-25 05:28 | -41.49409 | 174.80937 | 3035 ft | 151 kts | 309° |
| 2026-04-25 05:28 | -41.48620 | 174.80079 | 3027 ft | 148 kts | 330° |
| 2026-04-25 05:28 | -41.47650 | 174.79710 | 3018 ft | 149 kts | 353° |
| 2026-04-25 05:29 | -41.46605 | 174.79761 | 3014 ft | 148 kts | 360° |
| 2026-04-25 05:29 | -41.45579 | 174.79823 | 2912 ft | 156 kts | 0° |
| 2026-04-25 05:29 | -41.44467 | 174.79915 | 2757 ft | 161 kts | 359° |
| 2026-04-25 05:29 | -41.43387 | 174.80004 | 2613 ft | 152 kts | 0° |
| 2026-04-25 05:30 | -41.42344 | 174.80082 | 2346 ft | 146 kts | 0° |
| 2026-04-25 05:30 | -41.41367 | 174.80140 | 1984 ft | 136 kts | 359° |
| 2026-04-25 05:30 | -41.40438 | 174.80210 | 1557 ft | 133 kts | 0° |
| 2026-04-25 05:30 | -41.39534 | 174.80244 | 1264 ft | 122 kts | 0° |
| 2026-04-25 05:31 | -41.38758 | 174.80242 | 1012 ft | 107 kts | 360° |
| 2026-04-25 05:31 | -41.38041 | 174.80299 | 787 ft | 98 kts | 4° |
| 2026-04-25 05:31 | -41.37364 | 174.80388 | 621 ft | 101 kts | 5° |
| 2026-04-25 05:31 | -41.36624 | 174.80423 | 589 ft | 111 kts | 2° |
| 2026-04-25 05:32 | -41.35845 | 174.80466 | 468 ft | 113 kts | 1° |
| 2026-04-25 05:32 | -41.35068 | 174.80530 | 345 ft | 110 kts | 4° |
| 2026-04-25 05:32 | -41.34353 | 174.80576 | 208 ft | 98 kts | 1° |
| 2026-04-25 05:32 | -41.33684 | 174.80623 | 63 ft | 96 kts | 2° |
| 2026-04-25 05:33 | -41.33047 | 174.80664 | 13 ft | 84 kts | 2° |
| 2026-04-25 05:33 | -41.32709 | 174.80688 | 13 ft | 16 kts | 358° |
| 2026-04-25 05:33 | -41.32678 | 174.80592 | 17 ft | 17 kts | 271° |
| 2026-04-25 05:33 | -41.32671 | 174.80530 | 18 ft | 7 kts | 305° |
| 2026-04-25 05:34 | -41.32641 | 174.80519 | 19 ft | 0 kts | 5° |